createdAt,value
2022-07-26T00:01:45.499Z,26.23
2022-07-26T00:04:12.509Z,26.19
2022-07-26T00:06:39.959Z,26.13
2022-07-26T00:09:07.141Z,26.08
2022-07-26T00:11:34.777Z,26.06
2022-07-26T00:14:03.865Z,25.98
2022-07-26T00:16:31.106Z,25.96
2022-07-26T00:18:58.148Z,25.92
2022-07-26T00:21:25.663Z,25.87
2022-07-26T00:23:53.006Z,25.85
2022-07-26T00:26:19.960Z,25.80
2022-07-26T00:28:47.198Z,25.78
2022-07-26T00:31:14.382Z,25.76
2022-07-26T00:33:42.827Z,25.69
2022-07-26T00:36:10.346Z,25.66
2022-07-26T00:38:38.655Z,25.66
2022-07-26T00:41:06.614Z,25.61
2022-07-26T00:43:34.435Z,25.57
2022-07-26T00:46:02.917Z,25.50
2022-07-26T00:48:30.038Z,25.45
2022-07-26T00:50:57.380Z,25.43
2022-07-26T00:53:24.713Z,25.42
2022-07-26T00:55:52.801Z,25.37
2022-07-26T00:58:20.074Z,25.39
2022-07-26T01:00:47.186Z,25.37
2022-07-26T01:03:14.372Z,25.33
2022-07-26T01:05:42.573Z,25.32
2022-07-26T01:08:09.532Z,25.28
2022-07-26T01:10:36.528Z,25.28
2022-07-26T01:13:03.773Z,25.25
2022-07-26T01:15:30.757Z,25.25
2022-07-26T01:17:57.764Z,25.26
2022-07-26T01:20:25.057Z,25.23
2022-07-26T01:22:52.027Z,25.33
2022-07-26T01:25:30.308Z,25.27
2022-07-26T01:27:57.727Z,25.29
2022-07-26T01:30:24.978Z,25.29
2022-07-26T01:32:51.943Z,25.33
2022-07-26T01:35:19.250Z,25.34
2022-07-26T01:37:46.194Z,25.39
2022-07-26T01:40:14.349Z,25.38
2022-07-26T01:42:42.296Z,25.36
2022-07-26T01:45:11.568Z,25.35
2022-07-26T01:47:39.455Z,25.31
2022-07-26T01:50:08.266Z,25.32
2022-07-26T01:52:35.728Z,25.33
2022-07-26T01:55:03.328Z,25.34
2022-07-26T01:57:33.192Z,25.42
2022-07-26T02:00:00.163Z,25.50
2022-07-26T02:02:27.507Z,25.54
2022-07-26T02:05:01.395Z,25.59
2022-07-26T02:07:32.401Z,25.63
2022-07-26T02:10:00.615Z,25.67
2022-07-26T02:12:27.891Z,25.72
2022-07-26T02:14:54.930Z,25.82
2022-07-26T02:17:22.205Z,25.95
2022-07-26T02:19:49.355Z,26.03
2022-07-26T02:22:16.342Z,26.11
2022-07-26T02:24:43.609Z,26.18
2022-07-26T02:27:11.022Z,26.26
2022-07-26T02:29:38.032Z,26.26
2022-07-26T02:32:06.418Z,26.24
2022-07-26T02:34:34.133Z,26.21
2022-07-26T02:37:01.785Z,26.19
2022-07-26T02:39:29.193Z,26.18
2022-07-26T02:42:01.677Z,26.13
2022-07-26T02:44:29.282Z,25.83
2022-07-26T02:46:56.439Z,26.05
2022-07-26T02:49:23.515Z,26.06
2022-07-26T02:51:51.984Z,26.07
2022-07-26T02:54:18.905Z,26.08
2022-07-26T02:56:45.847Z,26.09
2022-07-26T02:59:13.058Z,26.06
2022-07-26T03:01:40.345Z,26.04
2022-07-26T03:04:08.177Z,26.01
2022-07-26T03:06:35.684Z,25.99
2022-07-26T03:09:03.340Z,25.95
2022-07-26T03:11:30.290Z,25.94
2022-07-26T03:13:57.653Z,25.90
2022-07-26T03:16:29.015Z,25.82
2022-07-26T03:18:56.935Z,25.73
2022-07-26T03:21:24.227Z,25.73
2022-07-26T03:23:51.176Z,25.69
2022-07-26T03:26:18.098Z,25.70
2022-07-26T03:28:45.375Z,25.69
2022-07-26T03:31:13.206Z,25.61
2022-07-26T03:33:40.976Z,25.51
2022-07-26T03:36:12.860Z,25.39
2022-07-26T03:38:43.639Z,25.34
2022-07-26T03:41:13.665Z,25.39
2022-07-26T03:43:40.948Z,25.23
2022-07-26T03:46:08.054Z,25.11
2022-07-26T03:48:35.442Z,25.02
2022-07-26T03:51:02.517Z,24.94
2022-07-26T03:53:29.433Z,24.92
2022-07-26T03:56:15.566Z,24.92
2022-07-26T03:58:42.514Z,24.82
2022-07-26T04:01:09.804Z,24.71
2022-07-26T04:03:36.763Z,24.60
2022-07-26T04:06:05.622Z,24.53
2022-07-26T04:08:33.187Z,24.44
2022-07-26T04:11:00.125Z,24.42
2022-07-26T04:13:27.690Z,24.34
2022-07-26T04:15:55.001Z,24.32
2022-07-26T04:18:24.110Z,24.27
2022-07-26T04:20:53.677Z,24.24
2022-07-26T04:23:21.051Z,24.18
2022-07-26T04:25:48.504Z,24.17
2022-07-26T04:28:16.093Z,24.14
2022-07-26T04:30:43.781Z,24.16
2022-07-26T04:33:11.465Z,24.10
2022-07-26T04:35:38.902Z,24.01
2022-07-26T04:38:06.033Z,24.02
2022-07-26T04:40:40.849Z,24.02
2022-07-26T04:43:10.023Z,23.98
2022-07-26T04:45:43.421Z,23.97
2022-07-26T04:48:10.819Z,24.01
2022-07-26T04:50:38.210Z,24.06
2022-07-26T04:53:05.166Z,24.09
2022-07-26T04:55:32.627Z,24.13
2022-07-26T04:57:59.536Z,24.13
2022-07-26T05:00:26.522Z,24.16
2022-07-26T05:02:56.525Z,24.18
2022-07-26T05:05:24.961Z,24.24
2022-07-26T05:07:54.765Z,24.23
2022-07-26T05:10:27.457Z,24.20
2022-07-26T05:12:54.364Z,24.10
2022-07-26T05:15:21.279Z,24.08
2022-07-26T05:17:48.505Z,24.02
2022-07-26T05:20:16.719Z,23.98
2022-07-26T05:22:44.775Z,24.01
2022-07-26T05:25:12.624Z,24.02
2022-07-26T05:27:41.715Z,24.03
2022-07-26T05:30:10.156Z,23.99
2022-07-26T05:32:37.819Z,23.95
2022-07-26T05:35:05.670Z,23.86
2022-07-26T05:37:32.802Z,23.85
2022-07-26T05:40:00.087Z,23.80
2022-07-26T05:42:27.153Z,23.77
2022-07-26T05:44:54.067Z,23.72
2022-07-26T05:47:23.519Z,23.64
2022-07-26T05:49:50.679Z,23.52
2022-07-26T05:52:17.884Z,23.43
2022-07-26T05:54:45.827Z,23.27
2022-07-26T05:57:12.798Z,23.27
2022-07-26T05:59:39.764Z,23.29
2022-07-26T06:02:08.507Z,23.22
2022-07-26T06:04:36.155Z,23.14
2022-07-26T06:07:03.416Z,23.07
2022-07-26T06:09:31.036Z,23.03
2022-07-26T06:11:58.019Z,22.95
2022-07-26T06:14:25.049Z,22.95
2022-07-26T06:16:52.500Z,23.04
2022-07-26T06:19:19.478Z,23.13
2022-07-26T06:21:46.394Z,23.21
2022-07-26T06:24:14.107Z,23.17
2022-07-26T06:26:41.143Z,23.18
2022-07-26T06:29:08.551Z,23.12
2022-07-26T06:31:36.365Z,23.17
2022-07-26T06:34:03.446Z,23.17
2022-07-26T06:36:31.207Z,23.01
2022-07-26T06:38:59.006Z,23.04
2022-07-26T06:41:26.391Z,23.02
2022-07-26T06:43:53.516Z,23.07
2022-07-26T06:46:21.461Z,23.10
2022-07-26T06:48:53.063Z,23.12
2022-07-26T06:51:24.307Z,23.15
2022-07-26T06:53:51.528Z,23.18
2022-07-26T06:56:19.354Z,23.18
2022-07-26T06:58:47.214Z,23.15
2022-07-26T07:01:57.881Z,23.09
2022-07-26T07:04:01.626Z,23.03
2022-07-26T07:06:28.694Z,23.06
2022-07-26T07:08:55.692Z,23.06
2022-07-26T07:11:23.865Z,23.13
2022-07-26T07:13:50.914Z,23.17
2022-07-26T07:16:17.843Z,23.27
2022-07-26T07:18:45.256Z,23.43
2022-07-26T07:21:13.570Z,23.56
2022-07-26T07:23:40.729Z,23.76
2022-07-26T07:26:08.545Z,23.87
2022-07-26T07:28:38.737Z,24.08
2022-07-26T07:31:06.635Z,24.18
2022-07-26T07:33:52.600Z,24.19
2022-07-26T07:36:21.417Z,24.09
2022-07-26T07:38:49.301Z,23.99
2022-07-26T07:41:16.460Z,24.04
2022-07-26T07:43:43.545Z,24.02
2022-07-26T07:46:12.927Z,24.00
2022-07-26T07:48:45.094Z,23.95
2022-07-26T07:51:14.781Z,23.99
2022-07-26T07:53:43.301Z,24.03
2022-07-26T07:56:25.785Z,24.24
2022-07-26T07:58:52.997Z,24.34
2022-07-26T08:01:21.844Z,24.28
2022-07-26T08:03:50.376Z,24.18
2022-07-26T08:06:18.111Z,24.17
2022-07-26T08:08:45.235Z,24.17
2022-07-26T08:11:16.237Z,24.24
2022-07-26T08:13:47.998Z,24.09
2022-07-26T08:16:15.967Z,24.01
2022-07-26T08:18:56.170Z,23.98
2022-07-26T08:21:29.065Z,23.85
2022-07-26T08:23:58.154Z,23.81
2022-07-26T08:26:26.195Z,23.78
2022-07-26T08:28:59.885Z,23.75
2022-07-26T08:31:28.688Z,23.70
2022-07-26T08:33:56.887Z,23.69
2022-07-26T08:36:26.182Z,23.70
2022-07-26T08:38:58.617Z,23.77
2022-07-26T08:41:26.111Z,23.84
2022-07-26T08:43:54.046Z,23.96
2022-07-26T08:46:27.406Z,24.00
2022-07-26T08:48:56.695Z,24.10
2022-07-26T08:51:26.104Z,24.23
2022-07-26T08:54:05.429Z,24.27
2022-07-26T08:56:40.923Z,24.43
2022-07-26T08:59:20.907Z,24.44
2022-07-26T09:01:55.471Z,24.41
2022-07-26T09:04:32.789Z,24.57
2022-07-26T09:07:07.572Z,24.77
2022-07-26T09:09:39.797Z,24.89
2022-07-26T09:12:20.107Z,24.95
2022-07-26T09:14:47.823Z,25.13
2022-07-26T09:17:20.466Z,25.27
2022-07-26T09:20:03.968Z,25.32
2022-07-26T09:22:31.535Z,25.35
2022-07-26T09:25:00.240Z,25.24
2022-07-26T09:27:38.498Z,24.98
2022-07-26T09:30:09.390Z,24.80
2022-07-26T09:32:37.139Z,24.80
2022-07-26T09:35:46.031Z,24.70
2022-07-26T09:38:16.657Z,24.61
2022-07-26T09:40:44.182Z,24.57
2022-07-26T09:43:23.979Z,24.61
2022-07-26T09:46:07.155Z,24.55
2022-07-26T09:49:16.551Z,24.57
2022-07-26T09:51:46.186Z,24.42
2022-07-26T09:54:30.276Z,24.33
2022-07-26T09:56:57.746Z,24.10
2022-07-26T09:59:29.516Z,24.42
2022-07-26T10:01:59.935Z,24.49
2022-07-26T10:04:29.453Z,24.44
2022-07-26T10:06:59.643Z,24.40
2022-07-26T10:09:46.954Z,24.31
2022-07-26T10:12:16.740Z,24.34
2022-07-26T10:14:46.346Z,24.24
2022-07-26T10:17:35.157Z,24.10
2022-07-26T10:20:09.273Z,24.28
2022-07-26T10:22:50.764Z,24.32
2022-07-26T10:25:18.284Z,24.39
2022-07-26T10:27:47.779Z,24.29
2022-07-26T10:30:33.844Z,24.35
2022-07-26T10:33:15.053Z,24.44
2022-07-26T10:35:44.316Z,24.62
2022-07-26T10:38:23.974Z,24.77
2022-07-26T10:40:57.687Z,24.93
2022-07-26T10:43:42.957Z,25.21
2022-07-26T10:46:19.577Z,25.40
2022-07-26T10:49:04.860Z,25.42
2022-07-26T10:51:40.714Z,25.57
2022-07-26T10:54:11.367Z,25.66
2022-07-26T10:56:39.719Z,25.66
2022-07-26T10:59:07.156Z,25.61
2022-07-26T11:01:36.414Z,25.74
2022-07-26T11:04:03.749Z,25.73
2022-07-26T11:06:31.279Z,25.82
2022-07-26T11:08:59.076Z,26.16
2022-07-26T11:11:31.400Z,26.19
2022-07-26T11:14:10.738Z,26.04
2022-07-26T11:16:41.923Z,26.30
2022-07-26T11:19:20.525Z,25.92
2022-07-26T11:21:55.140Z,26.49
2022-07-26T11:24:22.587Z,26.43
2022-07-26T11:26:50.463Z,26.70
2022-07-26T11:29:35.644Z,26.86
2022-07-26T11:32:18.053Z,27.28
2022-07-26T11:34:45.796Z,27.36
2022-07-26T11:37:14.538Z,27.33
2022-07-26T11:39:41.589Z,27.43
2022-07-26T11:42:15.189Z,27.68
2022-07-26T11:44:47.123Z,27.62
2022-07-26T11:47:16.234Z,27.71
2022-07-26T11:50:00.659Z,27.85
2022-07-26T11:52:32.059Z,27.78
2022-07-26T11:55:00.059Z,27.82
2022-07-26T11:57:32.050Z,27.98
2022-07-26T12:00:01.144Z,28.36
2022-07-26T12:02:38.860Z,28.68
2022-07-26T12:05:15.791Z,28.84
2022-07-26T12:08:00.775Z,28.94
2022-07-26T12:10:30.102Z,29.11
2022-07-26T12:13:15.254Z,28.71
2022-07-26T12:15:50.325Z,28.82
2022-07-26T12:18:30.764Z,28.71
2022-07-26T12:21:06.248Z,28.91
2022-07-26T12:23:51.433Z,28.64
2022-07-26T12:26:20.090Z,28.96
2022-07-26T12:28:47.371Z,28.85
2022-07-26T12:31:43.584Z,28.32
2022-07-26T12:34:11.860Z,28.65
2022-07-26T12:36:39.507Z,28.76
2022-07-26T12:39:06.682Z,28.87
2022-07-26T12:41:38.524Z,28.86
2022-07-26T12:44:07.015Z,29.02
2022-07-26T12:46:36.267Z,29.03
2022-07-26T12:49:04.627Z,28.82
2022-07-26T12:51:32.556Z,28.66
2022-07-26T12:54:00.313Z,28.35
2022-07-26T12:56:27.407Z,28.14
2022-07-26T12:59:00.764Z,27.99
2022-07-26T13:01:32.217Z,27.66
2022-07-26T13:04:00.912Z,27.31
2022-07-26T13:06:33.120Z,27.02
2022-07-26T13:09:01.219Z,26.62
2022-07-26T13:11:31.174Z,26.31
2022-07-26T13:13:58.599Z,25.76
2022-07-26T13:16:25.656Z,25.42
2022-07-26T13:18:52.671Z,25.24
2022-07-26T13:21:20.488Z,24.95
2022-07-26T13:23:47.702Z,24.77
2022-07-26T13:26:14.752Z,24.54
2022-07-26T13:28:42.238Z,24.38
2022-07-26T13:31:10.068Z,24.32
2022-07-26T13:33:39.435Z,24.27
2022-07-26T13:36:07.448Z,24.29
2022-07-26T13:38:34.759Z,24.28
2022-07-26T13:41:03.973Z,24.17
2022-07-26T13:43:32.449Z,24.22
2022-07-26T13:45:59.861Z,24.27
2022-07-26T13:48:30.439Z,24.32
2022-07-26T13:51:01.485Z,24.35
2022-07-26T13:53:30.636Z,24.45
2022-07-26T13:55:57.784Z,24.50
2022-07-26T13:58:25.448Z,24.62
2022-07-26T14:00:52.482Z,24.69
2022-07-26T14:03:19.802Z,24.74
2022-07-26T14:05:47.341Z,24.73
2022-07-26T14:08:14.846Z,24.78
2022-07-26T14:10:42.037Z,24.85
2022-07-26T14:13:09.797Z,24.86
2022-07-26T14:15:37.278Z,24.84
2022-07-26T14:18:04.518Z,24.86
2022-07-26T14:20:33.224Z,24.86
2022-07-26T14:23:01.176Z,24.83
2022-07-26T14:25:33.306Z,24.85
2022-07-26T14:28:01.147Z,24.82
2022-07-26T14:30:28.181Z,24.78
2022-07-26T14:32:55.392Z,24.81
2022-07-26T14:35:22.983Z,24.82
2022-07-26T14:37:51.266Z,24.80
2022-07-26T14:40:18.523Z,24.84
2022-07-26T14:42:46.934Z,24.92
2022-07-26T14:45:14.810Z,25.07
2022-07-26T14:47:42.870Z,25.25
2022-07-26T14:50:13.207Z,25.47
2022-07-26T14:52:48.323Z,25.67
2022-07-26T14:55:25.657Z,25.96
2022-07-26T14:57:53.095Z,26.09
2022-07-26T15:00:22.252Z,26.06
2022-07-26T15:02:50.019Z,26.07
2022-07-26T15:05:17.964Z,26.11
2022-07-26T15:07:46.394Z,26.17
2022-07-26T15:10:15.246Z,26.12
2022-07-26T15:12:43.250Z,26.20
2022-07-26T15:15:11.929Z,26.27
2022-07-26T15:17:40.982Z,26.31
2022-07-26T15:20:08.887Z,26.33
2022-07-26T15:22:36.722Z,26.35
2022-07-26T15:25:04.235Z,26.31
2022-07-26T15:27:31.695Z,26.30
2022-07-26T15:30:04.179Z,26.29
2022-07-26T15:32:33.611Z,26.39
2022-07-26T15:35:01.409Z,26.45
2022-07-26T15:37:31.068Z,26.49
2022-07-26T15:39:58.370Z,26.43
2022-07-26T15:42:27.058Z,26.39
2022-07-26T15:44:55.168Z,26.37
2022-07-26T15:47:53.145Z,26.37
2022-07-26T15:50:14.223Z,26.34
2022-07-26T15:52:46.284Z,26.27
2022-07-26T15:55:17.210Z,26.07
2022-07-26T15:57:46.972Z,25.97
2022-07-26T16:00:15.615Z,25.83
2022-07-26T16:02:43.364Z,25.68
2022-07-26T16:05:12.618Z,25.61
2022-07-26T16:07:42.554Z,25.54
2022-07-26T16:10:12.568Z,25.60
2022-07-26T16:12:42.953Z,25.62
2022-07-26T16:15:11.418Z,25.62
2022-07-26T16:17:46.928Z,25.58
2022-07-26T16:20:19.452Z,25.63
2022-07-26T16:22:48.402Z,25.57
2022-07-26T16:25:16.407Z,25.58
2022-07-26T16:27:45.167Z,25.55
2022-07-26T16:30:14.205Z,25.56
2022-07-26T16:32:45.594Z,25.58
2022-07-26T16:35:14.556Z,25.62
2022-07-26T16:37:47.236Z,25.65
2022-07-26T16:40:23.970Z,25.65
2022-07-26T16:42:51.896Z,25.66
2022-07-26T16:45:21.887Z,25.64
2022-07-26T16:47:50.649Z,25.63
2022-07-26T16:50:27.095Z,25.60
2022-07-26T16:53:45.753Z,25.37
2022-07-26T16:56:13.304Z,25.52
2022-07-26T16:58:42.227Z,25.50
2022-07-26T17:01:12.602Z,25.40
2022-07-26T17:03:40.126Z,25.18
2022-07-26T17:06:07.837Z,25.03
2022-07-26T17:08:36.876Z,24.78
2022-07-26T17:11:04.766Z,24.83
2022-07-26T17:13:56.352Z,24.75
2022-07-26T17:16:26.029Z,24.72
2022-07-26T17:18:55.247Z,24.66
2022-07-26T17:21:24.477Z,24.53
2022-07-26T17:23:52.440Z,24.37
2022-07-26T17:26:20.326Z,24.27
2022-07-26T17:28:48.112Z,24.18
2022-07-26T17:31:16.825Z,24.14
2022-07-26T17:33:43.882Z,24.09
2022-07-26T17:36:25.080Z,23.99
2022-07-26T17:38:53.097Z,24.10
2022-07-26T17:41:23.796Z,24.11
2022-07-26T17:44:00.712Z,24.16
2022-07-26T17:46:27.869Z,24.19
2022-07-26T17:48:55.728Z,24.08
2022-07-26T17:51:23.117Z,23.98
2022-07-26T17:53:53.241Z,23.99
2022-07-26T17:56:20.534Z,24.01
2022-07-26T17:58:48.033Z,24.04
2022-07-26T18:01:15.422Z,24.09
2022-07-26T18:03:42.519Z,24.03
2022-07-26T18:06:10.795Z,23.91
2022-07-26T18:08:38.764Z,23.76
2022-07-26T18:11:07.523Z,23.69
2022-07-26T18:13:35.552Z,23.58
2022-07-26T18:16:05.893Z,23.56
2022-07-26T18:18:33.590Z,23.45
2022-07-26T18:21:01.201Z,23.31
2022-07-26T18:23:28.698Z,23.23
2022-07-26T18:25:58.110Z,23.17
2022-07-26T18:28:25.784Z,23.14
2022-07-26T18:30:53.352Z,23.12
2022-07-26T18:33:21.635Z,23.07
2022-07-26T18:35:49.292Z,23.03
2022-07-26T18:38:16.416Z,22.98
2022-07-26T18:40:43.370Z,22.95
2022-07-26T18:43:10.734Z,22.91
2022-07-26T18:45:38.054Z,22.86
2022-07-26T18:48:05.379Z,22.80
2022-07-26T18:50:34.365Z,22.71
2022-07-26T18:53:02.728Z,22.72
2022-07-26T18:55:30.835Z,22.69
2022-07-26T18:58:01.952Z,22.66
2022-07-26T19:00:32.101Z,22.56
2022-07-26T19:02:59.462Z,22.57
2022-07-26T19:05:26.588Z,22.46
2022-07-26T19:08:02.135Z,22.38
2022-07-26T19:10:29.330Z,22.39
2022-07-26T19:12:56.369Z,22.38
2022-07-26T19:15:24.102Z,22.39
2022-07-26T19:18:40.749Z,22.23
2022-07-26T19:21:16.314Z,22.27
2022-07-26T19:23:43.447Z,22.22
2022-07-26T19:26:11.723Z,22.21
2022-07-26T19:28:39.054Z,22.21
2022-07-26T19:31:06.283Z,22.18
2022-07-26T19:33:33.440Z,22.16
2022-07-26T19:36:00.755Z,22.17
2022-07-26T19:38:27.878Z,22.16
2022-07-26T19:40:55.336Z,22.13
2022-07-26T19:43:22.763Z,22.11
2022-07-26T19:45:49.849Z,22.09
2022-07-26T19:48:17.255Z,22.07
2022-07-26T19:50:44.539Z,22.08
2022-07-26T19:53:11.599Z,22.04
2022-07-26T19:55:41.416Z,22.03
2022-07-26T19:58:08.956Z,22.02
2022-07-26T20:00:36.256Z,22.00
2022-07-26T20:03:05.698Z,22.00
2022-07-26T20:05:35.959Z,21.92
2022-07-26T20:08:04.289Z,21.90
2022-07-26T20:10:32.375Z,21.91
2022-07-26T20:13:00.030Z,21.90
2022-07-26T20:15:27.305Z,21.91
2022-07-26T20:17:54.669Z,21.91
2022-07-26T20:20:23.113Z,21.91
2022-07-26T20:22:50.352Z,21.92
2022-07-26T20:25:21.394Z,21.90
2022-07-26T20:27:51.480Z,21.88
2022-07-26T20:30:18.826Z,21.90
2022-07-26T20:32:49.172Z,21.89
2022-07-26T20:35:16.151Z,21.90
2022-07-26T20:37:43.651Z,21.88
2022-07-26T20:40:12.506Z,21.87
2022-07-26T20:42:44.503Z,21.88
2022-07-26T20:45:13.160Z,21.89
2022-07-26T20:47:40.604Z,21.89
2022-07-26T20:50:10.371Z,21.87
2022-07-26T20:52:37.815Z,21.91
2022-07-26T20:55:05.239Z,21.90
2022-07-26T20:57:32.316Z,21.92
2022-07-26T20:59:59.682Z,21.95
2022-07-26T21:02:27.797Z,21.92
2022-07-26T21:04:56.423Z,21.92
2022-07-26T21:07:24.570Z,21.95
2022-07-26T21:10:13.114Z,21.89
2022-07-26T21:12:40.512Z,21.90
2022-07-26T21:15:07.845Z,21.94
2022-07-26T21:17:35.270Z,21.93
2022-07-26T21:20:03.462Z,21.93
2022-07-26T21:22:30.702Z,21.94
2022-07-26T21:24:59.995Z,21.92
2022-07-26T21:27:27.313Z,21.91
2022-07-26T21:29:54.280Z,21.91
2022-07-26T21:32:21.412Z,21.89
2022-07-26T21:34:48.671Z,21.90
2022-07-26T21:37:15.804Z,21.90
2022-07-26T21:39:43.082Z,21.90
2022-07-26T21:42:11.541Z,21.90
2022-07-26T21:44:38.528Z,21.93
2022-07-26T21:47:08.432Z,21.94
2022-07-26T21:49:35.795Z,21.94
2022-07-26T21:52:02.734Z,21.97
2022-07-26T21:54:29.745Z,21.97
2022-07-26T21:56:56.961Z,22.01
2022-07-26T21:59:23.949Z,22.04
2022-07-26T22:01:51.173Z,22.07
2022-07-26T22:04:18.520Z,22.07
2022-07-26T22:06:45.582Z,22.08
2022-07-26T22:09:15.511Z,22.08
2022-07-26T22:11:42.836Z,22.08
2022-07-26T22:14:09.781Z,22.09
2022-07-26T22:16:37.446Z,22.08
2022-07-26T22:19:06.538Z,22.08
2022-07-26T22:21:33.571Z,22.04
2022-07-26T22:24:00.604Z,22.04
2022-07-26T22:26:31.273Z,22.03
2022-07-26T22:28:59.256Z,22.01
2022-07-26T22:31:26.536Z,21.99
2022-07-26T22:33:53.867Z,21.94
2022-07-26T22:36:21.093Z,21.93
2022-07-26T22:38:48.138Z,21.91
2022-07-26T22:41:15.571Z,21.88
2022-07-26T22:43:42.528Z,21.88
2022-07-26T22:46:09.546Z,21.86
2022-07-26T22:48:38.624Z,21.86
2022-07-26T22:51:06.536Z,21.84
2022-07-26T22:53:33.467Z,21.82
2022-07-26T22:56:01.766Z,21.81
2022-07-26T22:58:28.737Z,21.81
2022-07-26T23:00:55.823Z,21.80
2022-07-26T23:03:23.695Z,21.80
2022-07-26T23:05:52.289Z,21.78
2022-07-26T23:11:10.484Z,21.66
2022-07-26T23:13:37.454Z,21.66
2022-07-26T23:16:04.793Z,21.63
2022-07-26T23:18:33.598Z,21.57
2022-07-26T23:21:01.131Z,21.59
2022-07-26T23:23:29.595Z,21.60
2022-07-26T23:25:58.436Z,21.58
2022-07-26T23:28:37.732Z,21.59
2022-07-26T23:31:10.932Z,21.59
2022-07-26T23:33:53.076Z,21.58
2022-07-26T23:36:23.502Z,21.56
2022-07-26T23:38:50.480Z,21.55
2022-07-26T23:41:18.995Z,21.52
2022-07-26T23:43:46.353Z,21.47
2022-07-26T23:46:13.386Z,21.53
2022-07-26T23:48:40.545Z,21.52
2022-07-26T23:51:08.240Z,21.51
2022-07-26T23:53:35.356Z,21.48
2022-07-26T23:56:02.383Z,21.47
2022-07-26T23:58:30.055Z,21.48
